sensor_id;sensor_type;location;lat;lon;timestamp;P1;durP1;ratioP1;P2;durP2;ratioP2
13349;SDS011;6744;53.190;6.576;2023-05-27T00:02:01;9.13;;;3.10;;
13349;SDS011;6744;53.190;6.576;2023-05-27T00:04:27;7.80;;;3.20;;
13349;SDS011;6744;53.190;6.576;2023-05-27T00:06:52;10.27;;;3.40;;
13349;SDS011;6744;53.190;6.576;2023-05-27T00:09:18;6.80;;;2.90;;
13349;SDS011;6744;53.190;6.576;2023-05-27T00:11:43;7.07;;;2.73;;
13349;SDS011;6744;53.190;6.576;2023-05-27T00:14:09;7.10;;;2.47;;
13349;SDS011;6744;53.190;6.576;2023-05-27T00:16:34;6.10;;;2.60;;
13349;SDS011;6744;53.190;6.576;2023-05-27T00:19:02;6.17;;;2.97;;
13349;SDS011;6744;53.190;6.576;2023-05-27T00:21:27;7.13;;;2.50;;
13349;SDS011;6744;53.190;6.576;2023-05-27T00:23:53;6.57;;;3.07;;
13349;SDS011;6744;53.190;6.576;2023-05-27T00:26:18;7.70;;;2.80;;
13349;SDS011;6744;53.190;6.576;2023-05-27T00:28:44;6.13;;;2.63;;
13349;SDS011;6744;53.190;6.576;2023-05-27T00:31:09;7.50;;;2.60;;
13349;SDS011;6744;53.190;6.576;2023-05-27T00:33:34;9.50;;;2.90;;
13349;SDS011;6744;53.190;6.576;2023-05-27T00:35:59;6.87;;;2.80;;
13349;SDS011;6744;53.190;6.576;2023-05-27T00:38:25;7.23;;;2.97;;
13349;SDS011;6744;53.190;6.576;2023-05-27T00:40:50;6.27;;;3.00;;
13349;SDS011;6744;53.190;6.576;2023-05-27T00:43:17;7.90;;;3.10;;
13349;SDS011;6744;53.190;6.576;2023-05-27T00:45:43;7.60;;;3.00;;
13349;SDS011;6744;53.190;6.576;2023-05-27T00:48:08;6.57;;;3.40;;
13349;SDS011;6744;53.190;6.576;2023-05-27T00:50:34;6.17;;;3.10;;
13349;SDS011;6744;53.190;6.576;2023-05-27T00:53:00;6.70;;;2.90;;
13349;SDS011;6744;53.190;6.576;2023-05-27T00:55:25;7.23;;;3.40;;
13349;SDS011;6744;53.190;6.576;2023-05-27T00:57:51;8.80;;;3.13;;
13349;SDS011;6744;53.190;6.576;2023-05-27T01:00:20;8.97;;;3.13;;
13349;SDS011;6744;53.190;6.576;2023-05-27T01:02:48;6.37;;;3.00;;
13349;SDS011;6744;53.190;6.576;2023-05-27T01:05:14;7.67;;;3.10;;
13349;SDS011;6744;53.190;6.576;2023-05-27T01:10:32;7.30;;;2.97;;
13349;SDS011;6744;53.190;6.576;2023-05-27T01:13:24;6.23;;;2.70;;
13349;SDS011;6744;53.190;6.576;2023-05-27T01:15:56;8.77;;;2.90;;
13349;SDS011;6744;53.190;6.576;2023-05-27T01:18:24;6.47;;;2.80;;
13349;SDS011;6744;53.190;6.576;2023-05-27T01:20:54;7.20;;;2.77;;
13349;SDS011;6744;53.190;6.576;2023-05-27T01:23:28;7.77;;;2.60;;
13349;SDS011;6744;53.190;6.576;2023-05-27T01:25:53;9.60;;;3.27;;
13349;SDS011;6744;53.190;6.576;2023-05-27T01:28:19;8.43;;;3.00;;
13349;SDS011;6744;53.190;6.576;2023-05-27T01:30:44;10.90;;;3.27;;
13349;SDS011;6744;53.190;6.576;2023-05-27T01:33:12;6.97;;;2.90;;
13349;SDS011;6744;53.190;6.576;2023-05-27T01:35:41;7.93;;;2.90;;
13349;SDS011;6744;53.190;6.576;2023-05-27T01:38:10;7.67;;;3.03;;
13349;SDS011;6744;53.190;6.576;2023-05-27T01:40:39;7.63;;;2.97;;
13349;SDS011;6744;53.190;6.576;2023-05-27T01:43:05;6.40;;;3.00;;
13349;SDS011;6744;53.190;6.576;2023-05-27T01:45:31;9.93;;;3.50;;
13349;SDS011;6744;53.190;6.576;2023-05-27T01:47:57;8.40;;;2.83;;
13349;SDS011;6744;53.190;6.576;2023-05-27T01:50:23;10.43;;;3.20;;
13349;SDS011;6744;53.190;6.576;2023-05-27T01:52:48;8.27;;;3.00;;
13349;SDS011;6744;53.190;6.576;2023-05-27T01:55:13;6.90;;;2.60;;
13349;SDS011;6744;53.190;6.576;2023-05-27T01:57:39;7.93;;;3.03;;
13349;SDS011;6744;53.190;6.576;2023-05-27T02:00:04;8.70;;;3.13;;
13349;SDS011;6744;53.190;6.576;2023-05-27T02:02:31;10.40;;;3.23;;
13349;SDS011;6744;53.190;6.576;2023-05-27T02:04:57;10.50;;;3.50;;
13349;SDS011;6744;53.190;6.576;2023-05-27T02:07:22;9.27;;;3.13;;
13349;SDS011;6744;53.190;6.576;2023-05-27T02:09:47;8.77;;;3.10;;
13349;SDS011;6744;53.190;6.576;2023-05-27T02:12:13;9.30;;;3.23;;
13349;SDS011;6744;53.190;6.576;2023-05-27T02:14:38;10.17;;;3.80;;
13349;SDS011;6744;53.190;6.576;2023-05-27T02:17:04;7.33;;;2.77;;
13349;SDS011;6744;53.190;6.576;2023-05-27T02:19:30;8.10;;;3.27;;
13349;SDS011;6744;53.190;6.576;2023-05-27T02:21:55;6.07;;;2.60;;
13349;SDS011;6744;53.190;6.576;2023-05-27T02:24:21;8.13;;;3.10;;
13349;SDS011;6744;53.190;6.576;2023-05-27T02:26:46;10.27;;;3.73;;
13349;SDS011;6744;53.190;6.576;2023-05-27T02:29:11;7.77;;;3.30;;
13349;SDS011;6744;53.190;6.576;2023-05-27T02:31:37;10.80;;;3.10;;
13349;SDS011;6744;53.190;6.576;2023-05-27T02:34:02;7.83;;;2.70;;
13349;SDS011;6744;53.190;6.576;2023-05-27T02:36:27;8.03;;;2.80;;
13349;SDS011;6744;53.190;6.576;2023-05-27T02:38:52;10.80;;;3.50;;
13349;SDS011;6744;53.190;6.576;2023-05-27T02:41:18;10.43;;;3.73;;
13349;SDS011;6744;53.190;6.576;2023-05-27T02:43:43;11.47;;;3.40;;
13349;SDS011;6744;53.190;6.576;2023-05-27T02:46:09;9.53;;;3.10;;
13349;SDS011;6744;53.190;6.576;2023-05-27T02:48:34;11.13;;;3.60;;
13349;SDS011;6744;53.190;6.576;2023-05-27T02:50:59;9.03;;;3.70;;
13349;SDS011;6744;53.190;6.576;2023-05-27T02:53:25;7.83;;;2.87;;
13349;SDS011;6744;53.190;6.576;2023-05-27T02:55:50;5.40;;;2.50;;
13349;SDS011;6744;53.190;6.576;2023-05-27T02:58:15;6.63;;;2.80;;
13349;SDS011;6744;53.190;6.576;2023-05-27T03:00:41;8.23;;;3.30;;
13349;SDS011;6744;53.190;6.576;2023-05-27T03:03:06;7.10;;;2.90;;
13349;SDS011;6744;53.190;6.576;2023-05-27T03:05:33;8.23;;;2.93;;
13349;SDS011;6744;53.190;6.576;2023-05-27T03:07:59;7.70;;;2.90;;
13349;SDS011;6744;53.190;6.576;2023-05-27T03:10:25;7.23;;;3.17;;
13349;SDS011;6744;53.190;6.576;2023-05-27T03:12:50;6.43;;;2.70;;
13349;SDS011;6744;53.190;6.576;2023-05-27T03:15:16;7.20;;;2.83;;
13349;SDS011;6744;53.190;6.576;2023-05-27T03:17:41;7.63;;;2.93;;
13349;SDS011;6744;53.190;6.576;2023-05-27T03:20:06;6.87;;;2.90;;
13349;SDS011;6744;53.190;6.576;2023-05-27T03:22:33;8.53;;;3.40;;
13349;SDS011;6744;53.190;6.576;2023-05-27T03:24:59;8.03;;;3.40;;
13349;SDS011;6744;53.190;6.576;2023-05-27T03:27:25;6.93;;;3.20;;
13349;SDS011;6744;53.190;6.576;2023-05-27T03:29:50;8.00;;;2.97;;
13349;SDS011;6744;53.190;6.576;2023-05-27T03:32:16;7.63;;;3.27;;
13349;SDS011;6744;53.190;6.576;2023-05-27T03:34:41;6.23;;;2.80;;
13349;SDS011;6744;53.190;6.576;2023-05-27T03:37:07;6.87;;;3.00;;
13349;SDS011;6744;53.190;6.576;2023-05-27T03:39:32;5.97;;;3.30;;
13349;SDS011;6744;53.190;6.576;2023-05-27T03:41:57;6.10;;;3.00;;
13349;SDS011;6744;53.190;6.576;2023-05-27T03:44:23;8.50;;;3.07;;
13349;SDS011;6744;53.190;6.576;2023-05-27T03:46:48;7.57;;;3.47;;
13349;SDS011;6744;53.190;6.576;2023-05-27T03:49:13;8.93;;;3.03;;
13349;SDS011;6744;53.190;6.576;2023-05-27T03:51:39;12.57;;;4.03;;
13349;SDS011;6744;53.190;6.576;2023-05-27T03:54:05;11.07;;;3.40;;
13349;SDS011;6744;53.190;6.576;2023-05-27T03:56:30;5.93;;;2.90;;
13349;SDS011;6744;53.190;6.576;2023-05-27T03:58:55;6.93;;;3.07;;
13349;SDS011;6744;53.190;6.576;2023-05-27T04:01:21;9.60;;;2.83;;
13349;SDS011;6744;53.190;6.576;2023-05-27T04:03:47;7.17;;;3.13;;
13349;SDS011;6744;53.190;6.576;2023-05-27T04:06:13;8.87;;;3.53;;
13349;SDS011;6744;53.190;6.576;2023-05-27T04:08:38;7.27;;;2.67;;
13349;SDS011;6744;53.190;6.576;2023-05-27T04:11:05;5.33;;;2.80;;
13349;SDS011;6744;53.190;6.576;2023-05-27T04:13:31;5.90;;;3.10;;
13349;SDS011;6744;53.190;6.576;2023-05-27T04:15:56;7.30;;;3.13;;
13349;SDS011;6744;53.190;6.576;2023-05-27T04:18:24;7.53;;;3.07;;
13349;SDS011;6744;53.190;6.576;2023-05-27T04:20:50;9.43;;;3.80;;
13349;SDS011;6744;53.190;6.576;2023-05-27T04:23:17;6.70;;;3.10;;
13349;SDS011;6744;53.190;6.576;2023-05-27T04:25:42;8.20;;;3.23;;
13349;SDS011;6744;53.190;6.576;2023-05-27T04:28:08;7.37;;;2.90;;
13349;SDS011;6744;53.190;6.576;2023-05-27T04:30:33;9.27;;;3.37;;
13349;SDS011;6744;53.190;6.576;2023-05-27T04:32:59;7.10;;;2.83;;
13349;SDS011;6744;53.190;6.576;2023-05-27T04:35:25;9.07;;;3.10;;
13349;SDS011;6744;53.190;6.576;2023-05-27T04:37:51;8.37;;;3.43;;
13349;SDS011;6744;53.190;6.576;2023-05-27T04:40:16;7.77;;;3.50;;
13349;SDS011;6744;53.190;6.576;2023-05-27T04:42:42;11.67;;;3.90;;
13349;SDS011;6744;53.190;6.576;2023-05-27T04:45:09;10.93;;;3.33;;
13349;SDS011;6744;53.190;6.576;2023-05-27T04:47:36;8.47;;;3.37;;
13349;SDS011;6744;53.190;6.576;2023-05-27T04:50:02;7.00;;;2.70;;
13349;SDS011;6744;53.190;6.576;2023-05-27T04:52:28;7.20;;;3.07;;
13349;SDS011;6744;53.190;6.576;2023-05-27T04:54:54;10.87;;;3.33;;
13349;SDS011;6744;53.190;6.576;2023-05-27T04:57:20;9.03;;;3.00;;
13349;SDS011;6744;53.190;6.576;2023-05-27T04:59:45;6.30;;;2.90;;
13349;SDS011;6744;53.190;6.576;2023-05-27T05:02:23;6.83;;;2.90;;
13349;SDS011;6744;53.190;6.576;2023-05-27T05:04:52;8.60;;;3.30;;
13349;SDS011;6744;53.190;6.576;2023-05-27T05:07:17;10.27;;;2.90;;
13349;SDS011;6744;53.190;6.576;2023-05-27T05:09:44;8.07;;;3.00;;
13349;SDS011;6744;53.190;6.576;2023-05-27T05:12:09;8.10;;;3.40;;
13349;SDS011;6744;53.190;6.576;2023-05-27T05:14:35;11.20;;;3.60;;
13349;SDS011;6744;53.190;6.576;2023-05-27T05:17:00;7.23;;;3.00;;
13349;SDS011;6744;53.190;6.576;2023-05-27T05:19:25;8.17;;;3.33;;
13349;SDS011;6744;53.190;6.576;2023-05-27T05:21:51;7.70;;;3.37;;
13349;SDS011;6744;53.190;6.576;2023-05-27T05:24:16;8.00;;;3.50;;
13349;SDS011;6744;53.190;6.576;2023-05-27T05:26:41;8.73;;;3.10;;
13349;SDS011;6744;53.190;6.576;2023-05-27T05:29:09;10.90;;;3.00;;
13349;SDS011;6744;53.190;6.576;2023-05-27T05:31:34;6.77;;;2.83;;
13349;SDS011;6744;53.190;6.576;2023-05-27T05:33:59;8.10;;;3.07;;
13349;SDS011;6744;53.190;6.576;2023-05-27T05:36:25;8.63;;;3.27;;
13349;SDS011;6744;53.190;6.576;2023-05-27T05:38:50;12.13;;;3.80;;
13349;SDS011;6744;53.190;6.576;2023-05-27T05:41:16;7.87;;;3.50;;
13349;SDS011;6744;53.190;6.576;2023-05-27T05:43:41;8.17;;;2.80;;
13349;SDS011;6744;53.190;6.576;2023-05-27T05:46:07;8.90;;;3.50;;
13349;SDS011;6744;53.190;6.576;2023-05-27T05:48:32;8.93;;;3.10;;
13349;SDS011;6744;53.190;6.576;2023-05-27T05:50:57;8.67;;;2.97;;
13349;SDS011;6744;53.190;6.576;2023-05-27T05:53:25;7.47;;;2.90;;
13349;SDS011;6744;53.190;6.576;2023-05-27T05:55:51;9.93;;;4.17;;
13349;SDS011;6744;53.190;6.576;2023-05-27T05:58:16;9.63;;;3.30;;
13349;SDS011;6744;53.190;6.576;2023-05-27T06:00:41;9.57;;;3.10;;
13349;SDS011;6744;53.190;6.576;2023-05-27T06:03:07;10.90;;;3.83;;
13349;SDS011;6744;53.190;6.576;2023-05-27T06:05:32;10.00;;;3.70;;
13349;SDS011;6744;53.190;6.576;2023-05-27T06:07:57;9.97;;;3.57;;
13349;SDS011;6744;53.190;6.576;2023-05-27T06:10:22;10.13;;;3.33;;
13349;SDS011;6744;53.190;6.576;2023-05-27T06:12:48;14.57;;;3.70;;
13349;SDS011;6744;53.190;6.576;2023-05-27T06:15:13;13.53;;;4.13;;
13349;SDS011;6744;53.190;6.576;2023-05-27T06:17:39;8.67;;;3.77;;
13349;SDS011;6744;53.190;6.576;2023-05-27T06:20:05;12.37;;;3.53;;
13349;SDS011;6744;53.190;6.576;2023-05-27T06:22:31;14.00;;;3.87;;
13349;SDS011;6744;53.190;6.576;2023-05-27T06:24:56;13.13;;;3.40;;
13349;SDS011;6744;53.190;6.576;2023-05-27T06:27:21;12.07;;;3.80;;
13349;SDS011;6744;53.190;6.576;2023-05-27T06:29:47;15.83;;;4.37;;
13349;SDS011;6744;53.190;6.576;2023-05-27T06:32:12;9.67;;;3.57;;
13349;SDS011;6744;53.190;6.576;2023-05-27T06:34:38;12.30;;;4.30;;
13349;SDS011;6744;53.190;6.576;2023-05-27T06:37:03;14.30;;;4.03;;
13349;SDS011;6744;53.190;6.576;2023-05-27T06:39:28;12.70;;;4.33;;
13349;SDS011;6744;53.190;6.576;2023-05-27T06:41:54;14.77;;;3.73;;
13349;SDS011;6744;53.190;6.576;2023-05-27T06:44:19;13.37;;;4.67;;
13349;SDS011;6744;53.190;6.576;2023-05-27T06:46:44;13.80;;;4.27;;
13349;SDS011;6744;53.190;6.576;2023-05-27T06:49:10;12.30;;;3.80;;
13349;SDS011;6744;53.190;6.576;2023-05-27T06:51:35;16.53;;;4.63;;
13349;SDS011;6744;53.190;6.576;2023-05-27T06:54:01;12.87;;;4.47;;
13349;SDS011;6744;53.190;6.576;2023-05-27T06:56:27;13.13;;;4.33;;
13349;SDS011;6744;53.190;6.576;2023-05-27T06:58:52;14.63;;;4.30;;
13349;SDS011;6744;53.190;6.576;2023-05-27T07:01:17;9.00;;;3.57;;
13349;SDS011;6744;53.190;6.576;2023-05-27T07:03:43;11.73;;;3.97;;
13349;SDS011;6744;53.190;6.576;2023-05-27T07:06:09;10.33;;;3.87;;
13349;SDS011;6744;53.190;6.576;2023-05-27T07:08:35;11.10;;;4.13;;
13349;SDS011;6744;53.190;6.576;2023-05-27T07:11:00;13.00;;;4.03;;
13349;SDS011;6744;53.190;6.576;2023-05-27T07:13:25;11.43;;;3.43;;
13349;SDS011;6744;53.190;6.576;2023-05-27T07:15:51;13.30;;;4.17;;
13349;SDS011;6744;53.190;6.576;2023-05-27T07:18:16;15.27;;;4.80;;
13349;SDS011;6744;53.190;6.576;2023-05-27T07:20:41;13.53;;;3.87;;
13349;SDS011;6744;53.190;6.576;2023-05-27T07:23:07;10.97;;;3.63;;
13349;SDS011;6744;53.190;6.576;2023-05-27T07:25:32;9.87;;;4.20;;
13349;SDS011;6744;53.190;6.576;2023-05-27T07:27:58;12.17;;;4.10;;
13349;SDS011;6744;53.190;6.576;2023-05-27T07:30:23;11.23;;;3.43;;
13349;SDS011;6744;53.190;6.576;2023-05-27T07:32:48;8.07;;;3.53;;
13349;SDS011;6744;53.190;6.576;2023-05-27T07:35:13;14.63;;;4.20;;
13349;SDS011;6744;53.190;6.576;2023-05-27T07:37:39;12.67;;;4.30;;
13349;SDS011;6744;53.190;6.576;2023-05-27T07:40:05;12.37;;;4.00;;
13349;SDS011;6744;53.190;6.576;2023-05-27T07:42:31;9.97;;;3.83;;
13349;SDS011;6744;53.190;6.576;2023-05-27T07:44:57;13.20;;;4.53;;
13349;SDS011;6744;53.190;6.576;2023-05-27T07:47:22;12.10;;;4.60;;
13349;SDS011;6744;53.190;6.576;2023-05-27T07:49:49;12.93;;;4.70;;
13349;SDS011;6744;53.190;6.576;2023-05-27T07:52:15;11.40;;;4.57;;
13349;SDS011;6744;53.190;6.576;2023-05-27T07:54:40;12.67;;;5.70;;
13349;SDS011;6744;53.190;6.576;2023-05-27T07:57:06;12.47;;;6.10;;
13349;SDS011;6744;53.190;6.576;2023-05-27T07:59:31;16.67;;;6.87;;
13349;SDS011;6744;53.190;6.576;2023-05-27T08:01:57;12.23;;;5.70;;
13349;SDS011;6744;53.190;6.576;2023-05-27T08:04:22;12.03;;;5.70;;
13349;SDS011;6744;53.190;6.576;2023-05-27T08:06:47;11.97;;;5.17;;
13349;SDS011;6744;53.190;6.576;2023-05-27T08:09:12;12.03;;;4.77;;
13349;SDS011;6744;53.190;6.576;2023-05-27T08:11:38;12.93;;;5.00;;
13349;SDS011;6744;53.190;6.576;2023-05-27T08:14:03;13.60;;;4.60;;
13349;SDS011;6744;53.190;6.576;2023-05-27T08:16:28;10.53;;;4.37;;
13349;SDS011;6744;53.190;6.576;2023-05-27T08:18:54;12.83;;;4.93;;
13349;SDS011;6744;53.190;6.576;2023-05-27T08:21:19;12.83;;;4.80;;
13349;SDS011;6744;53.190;6.576;2023-05-27T08:23:45;12.10;;;4.90;;
13349;SDS011;6744;53.190;6.576;2023-05-27T08:26:10;11.60;;;4.80;;
13349;SDS011;6744;53.190;6.576;2023-05-27T08:28:36;11.53;;;4.60;;
13349;SDS011;6744;53.190;6.576;2023-05-27T08:31:02;9.63;;;4.23;;
13349;SDS011;6744;53.190;6.576;2023-05-27T08:33:30;12.10;;;4.70;;
13349;SDS011;6744;53.190;6.576;2023-05-27T08:35:55;13.67;;;4.87;;
13349;SDS011;6744;53.190;6.576;2023-05-27T08:38:21;9.53;;;4.50;;
13349;SDS011;6744;53.190;6.576;2023-05-27T08:40:47;12.70;;;4.93;;
13349;SDS011;6744;53.190;6.576;2023-05-27T08:43:13;9.30;;;4.30;;
13349;SDS011;6744;53.190;6.576;2023-05-27T08:45:38;10.53;;;4.30;;
13349;SDS011;6744;53.190;6.576;2023-05-27T08:48:06;10.03;;;4.13;;
13349;SDS011;6744;53.190;6.576;2023-05-27T08:50:33;10.97;;;4.27;;
13349;SDS011;6744;53.190;6.576;2023-05-27T08:52:58;10.13;;;3.97;;
13349;SDS011;6744;53.190;6.576;2023-05-27T08:55:24;9.83;;;4.50;;
13349;SDS011;6744;53.190;6.576;2023-05-27T08:57:54;10.80;;;4.37;;
13349;SDS011;6744;53.190;6.576;2023-05-27T09:00:20;8.70;;;3.77;;
13349;SDS011;6744;53.190;6.576;2023-05-27T09:02:46;13.43;;;5.27;;
13349;SDS011;6744;53.190;6.576;2023-05-27T09:05:12;9.13;;;3.67;;
13349;SDS011;6744;53.190;6.576;2023-05-27T09:07:38;9.70;;;3.70;;
13349;SDS011;6744;53.190;6.576;2023-05-27T09:10:04;8.70;;;3.90;;
13349;SDS011;6744;53.190;6.576;2023-05-27T09:12:31;9.93;;;3.83;;
13349;SDS011;6744;53.190;6.576;2023-05-27T09:14:57;10.87;;;4.10;;
13349;SDS011;6744;53.190;6.576;2023-05-27T09:17:22;11.07;;;4.10;;
13349;SDS011;6744;53.190;6.576;2023-05-27T09:19:52;11.80;;;4.00;;
13349;SDS011;6744;53.190;6.576;2023-05-27T09:22:25;9.57;;;4.30;;
13349;SDS011;6744;53.190;6.576;2023-05-27T09:24:53;11.80;;;3.67;;
13349;SDS011;6744;53.190;6.576;2023-05-27T09:27:23;10.60;;;3.77;;
13349;SDS011;6744;53.190;6.576;2023-05-27T09:29:52;13.13;;;3.97;;
13349;SDS011;6744;53.190;6.576;2023-05-27T09:32:26;10.77;;;4.40;;
13349;SDS011;6744;53.190;6.576;2023-05-27T09:34:56;8.40;;;4.07;;
13349;SDS011;6744;53.190;6.576;2023-05-27T09:37:28;9.73;;;4.07;;
13349;SDS011;6744;53.190;6.576;2023-05-27T09:40:15;14.07;;;4.40;;
13349;SDS011;6744;53.190;6.576;2023-05-27T09:42:41;9.37;;;4.10;;
13349;SDS011;6744;53.190;6.576;2023-05-27T09:45:14;8.30;;;3.90;;
13349;SDS011;6744;53.190;6.576;2023-05-27T09:47:41;11.37;;;4.30;;
13349;SDS011;6744;53.190;6.576;2023-05-27T09:50:13;9.17;;;4.13;;
13349;SDS011;6744;53.190;6.576;2023-05-27T09:52:42;9.33;;;4.20;;
13349;SDS011;6744;53.190;6.576;2023-05-27T09:55:09;9.87;;;3.80;;
13349;SDS011;6744;53.190;6.576;2023-05-27T09:57:36;8.67;;;4.03;;
13349;SDS011;6744;53.190;6.576;2023-05-27T10:00:05;9.37;;;4.27;;
13349;SDS011;6744;53.190;6.576;2023-05-27T10:02:36;10.30;;;4.10;;
13349;SDS011;6744;53.190;6.576;2023-05-27T10:05:03;10.03;;;4.67;;
13349;SDS011;6744;53.190;6.576;2023-05-27T10:07:31;8.20;;;4.00;;
13349;SDS011;6744;53.190;6.576;2023-05-27T10:09:56;11.40;;;3.80;;
13349;SDS011;6744;53.190;6.576;2023-05-27T10:12:22;11.77;;;4.27;;
13349;SDS011;6744;53.190;6.576;2023-05-27T10:14:48;11.13;;;4.80;;
13349;SDS011;6744;53.190;6.576;2023-05-27T10:17:13;10.07;;;4.30;;
13349;SDS011;6744;53.190;6.576;2023-05-27T10:19:48;10.60;;;4.40;;
13349;SDS011;6744;53.190;6.576;2023-05-27T10:22:17;7.50;;;3.67;;
13349;SDS011;6744;53.190;6.576;2023-05-27T10:24:45;9.97;;;4.00;;
13349;SDS011;6744;53.190;6.576;2023-05-27T10:27:13;12.10;;;4.90;;
13349;SDS011;6744;53.190;6.576;2023-05-27T10:29:38;9.67;;;4.67;;
13349;SDS011;6744;53.190;6.576;2023-05-27T10:32:04;11.67;;;4.33;;
13349;SDS011;6744;53.190;6.576;2023-05-27T10:34:33;8.50;;;4.20;;
13349;SDS011;6744;53.190;6.576;2023-05-27T10:37:02;9.10;;;4.27;;
13349;SDS011;6744;53.190;6.576;2023-05-27T10:39:28;9.43;;;4.03;;
13349;SDS011;6744;53.190;6.576;2023-05-27T10:41:54;10.33;;;4.33;;
13349;SDS011;6744;53.190;6.576;2023-05-27T10:44:33;9.63;;;4.17;;
13349;SDS011;6744;53.190;6.576;2023-05-27T10:47:00;8.97;;;4.30;;
13349;SDS011;6744;53.190;6.576;2023-05-27T10:49:28;10.43;;;5.00;;
13349;SDS011;6744;53.190;6.576;2023-05-27T10:52:00;11.23;;;4.50;;
13349;SDS011;6744;53.190;6.576;2023-05-27T10:54:33;9.23;;;4.30;;
13349;SDS011;6744;53.190;6.576;2023-05-27T10:57:00;10.57;;;4.43;;
13349;SDS011;6744;53.190;6.576;2023-05-27T10:59:27;10.40;;;4.30;;
13349;SDS011;6744;53.190;6.576;2023-05-27T11:02:01;10.07;;;3.87;;
13349;SDS011;6744;53.190;6.576;2023-05-27T11:04:34;8.10;;;4.20;;
13349;SDS011;6744;53.190;6.576;2023-05-27T11:07:02;9.27;;;4.33;;
13349;SDS011;6744;53.190;6.576;2023-05-27T11:09:28;9.93;;;4.47;;
13349;SDS011;6744;53.190;6.576;2023-05-27T11:11:55;9.10;;;4.10;;
13349;SDS011;6744;53.190;6.576;2023-05-27T11:14:21;8.07;;;4.20;;
13349;SDS011;6744;53.190;6.576;2023-05-27T11:16:47;11.80;;;4.33;;
13349;SDS011;6744;53.190;6.576;2023-05-27T11:19:13;10.73;;;4.87;;
13349;SDS011;6744;53.190;6.576;2023-05-27T11:21:45;10.13;;;4.70;;
13349;SDS011;6744;53.190;6.576;2023-05-27T11:24:14;8.87;;;3.93;;
13349;SDS011;6744;53.190;6.576;2023-05-27T11:26:42;9.17;;;4.53;;
13349;SDS011;6744;53.190;6.576;2023-05-27T11:29:08;9.23;;;4.33;;
13349;SDS011;6744;53.190;6.576;2023-05-27T11:31:33;6.17;;;3.90;;
13349;SDS011;6744;53.190;6.576;2023-05-27T11:34:00;8.23;;;4.20;;
13349;SDS011;6744;53.190;6.576;2023-05-27T11:36:26;8.40;;;4.50;;
13349;SDS011;6744;53.190;6.576;2023-05-27T11:38:52;8.83;;;4.20;;
13349;SDS011;6744;53.190;6.576;2023-05-27T11:41:22;10.47;;;4.47;;
13349;SDS011;6744;53.190;6.576;2023-05-27T11:46:38;8.60;;;4.27;;
13349;SDS011;6744;53.190;6.576;2023-05-27T11:49:05;7.97;;;4.17;;
13349;SDS011;6744;53.190;6.576;2023-05-27T11:51:36;8.80;;;4.27;;
13349;SDS011;6744;53.190;6.576;2023-05-27T11:54:02;10.07;;;5.00;;
13349;SDS011;6744;53.190;6.576;2023-05-27T11:56:28;7.13;;;4.03;;
13349;SDS011;6744;53.190;6.576;2023-05-27T11:58:54;9.97;;;4.23;;
13349;SDS011;6744;53.190;6.576;2023-05-27T12:01:20;10.10;;;4.57;;
13349;SDS011;6744;53.190;6.576;2023-05-27T12:03:46;8.37;;;4.83;;
13349;SDS011;6744;53.190;6.576;2023-05-27T12:06:11;9.10;;;4.27;;
13349;SDS011;6744;53.190;6.576;2023-05-27T12:08:36;9.43;;;4.57;;
13349;SDS011;6744;53.190;6.576;2023-05-27T12:11:03;8.47;;;4.10;;
13349;SDS011;6744;53.190;6.576;2023-05-27T12:13:29;7.53;;;3.77;;
13349;SDS011;6744;53.190;6.576;2023-05-27T12:15:54;8.33;;;3.97;;
13349;SDS011;6744;53.190;6.576;2023-05-27T12:18:20;11.07;;;4.80;;
13349;SDS011;6744;53.190;6.576;2023-05-27T12:20:45;8.73;;;4.30;;
13349;SDS011;6744;53.190;6.576;2023-05-27T12:23:10;8.27;;;3.93;;
13349;SDS011;6744;53.190;6.576;2023-05-27T12:25:36;9.10;;;4.40;;
13349;SDS011;6744;53.190;6.576;2023-05-27T12:28:01;8.07;;;4.30;;
13349;SDS011;6744;53.190;6.576;2023-05-27T12:30:27;9.53;;;4.13;;
13349;SDS011;6744;53.190;6.576;2023-05-27T12:32:52;8.80;;;3.63;;
13349;SDS011;6744;53.190;6.576;2023-05-27T12:35:18;8.87;;;4.07;;
13349;SDS011;6744;53.190;6.576;2023-05-27T12:37:43;8.10;;;3.90;;
13349;SDS011;6744;53.190;6.576;2023-05-27T12:40:09;10.90;;;4.47;;
13349;SDS011;6744;53.190;6.576;2023-05-27T12:42:39;8.10;;;4.30;;
13349;SDS011;6744;53.190;6.576;2023-05-27T12:45:04;8.77;;;4.77;;
13349;SDS011;6744;53.190;6.576;2023-05-27T12:47:30;10.07;;;4.80;;
13349;SDS011;6744;53.190;6.576;2023-05-27T12:49:55;8.53;;;3.97;;
13349;SDS011;6744;53.190;6.576;2023-05-27T12:52:22;12.03;;;4.60;;
13349;SDS011;6744;53.190;6.576;2023-05-27T12:54:47;8.83;;;4.17;;
13349;SDS011;6744;53.190;6.576;2023-05-27T12:57:13;8.10;;;4.20;;
13349;SDS011;6744;53.190;6.576;2023-05-27T12:59:38;9.50;;;4.50;;
13349;SDS011;6744;53.190;6.576;2023-05-27T13:02:04;13.77;;;4.70;;
13349;SDS011;6744;53.190;6.576;2023-05-27T13:04:30;10.77;;;4.43;;
13349;SDS011;6744;53.190;6.576;2023-05-27T13:06:55;7.97;;;4.40;;
13349;SDS011;6744;53.190;6.576;2023-05-27T13:09:21;10.13;;;4.67;;
13349;SDS011;6744;53.190;6.576;2023-05-27T13:11:53;9.37;;;4.27;;
13349;SDS011;6744;53.190;6.576;2023-05-27T13:14:19;7.97;;;3.87;;
13349;SDS011;6744;53.190;6.576;2023-05-27T13:16:44;11.17;;;5.20;;
13349;SDS011;6744;53.190;6.576;2023-05-27T13:19:09;10.40;;;4.70;;
13349;SDS011;6744;53.190;6.576;2023-05-27T13:21:35;10.77;;;4.60;;
13349;SDS011;6744;53.190;6.576;2023-05-27T13:24:00;7.17;;;4.33;;
13349;SDS011;6744;53.190;6.576;2023-05-27T13:26:27;8.90;;;4.43;;
13349;SDS011;6744;53.190;6.576;2023-05-27T13:28:53;8.80;;;4.20;;
13349;SDS011;6744;53.190;6.576;2023-05-27T13:31:18;13.50;;;4.50;;
13349;SDS011;6744;53.190;6.576;2023-05-27T13:33:44;9.10;;;4.37;;
13349;SDS011;6744;53.190;6.576;2023-05-27T13:36:09;9.80;;;4.83;;
13349;SDS011;6744;53.190;6.576;2023-05-27T13:38:35;9.03;;;4.50;;
13349;SDS011;6744;53.190;6.576;2023-05-27T13:41:00;9.63;;;4.40;;
13349;SDS011;6744;53.190;6.576;2023-05-27T13:43:26;9.67;;;4.33;;
13349;SDS011;6744;53.190;6.576;2023-05-27T13:45:51;8.53;;;4.10;;
13349;SDS011;6744;53.190;6.576;2023-05-27T13:48:16;10.50;;;5.10;;
13349;SDS011;6744;53.190;6.576;2023-05-27T13:50:42;11.53;;;5.03;;
13349;SDS011;6744;53.190;6.576;2023-05-27T13:53:07;8.23;;;4.07;;
13349;SDS011;6744;53.190;6.576;2023-05-27T13:55:33;9.27;;;4.20;;
13349;SDS011;6744;53.190;6.576;2023-05-27T13:57:58;13.80;;;5.53;;
13349;SDS011;6744;53.190;6.576;2023-05-27T14:00:24;8.27;;;4.37;;
13349;SDS011;6744;53.190;6.576;2023-05-27T14:02:49;7.33;;;3.83;;
13349;SDS011;6744;53.190;6.576;2023-05-27T14:05:15;11.33;;;5.07;;
13349;SDS011;6744;53.190;6.576;2023-05-27T14:07:40;11.60;;;5.30;;
13349;SDS011;6744;53.190;6.576;2023-05-27T14:10:08;8.27;;;4.17;;
13349;SDS011;6744;53.190;6.576;2023-05-27T14:12:33;9.30;;;4.17;;
13349;SDS011;6744;53.190;6.576;2023-05-27T14:14:59;8.10;;;4.10;;
13349;SDS011;6744;53.190;6.576;2023-05-27T14:17:25;7.97;;;4.30;;
13349;SDS011;6744;53.190;6.576;2023-05-27T14:19:50;8.90;;;4.00;;
13349;SDS011;6744;53.190;6.576;2023-05-27T14:22:16;9.27;;;4.50;;
13349;SDS011;6744;53.190;6.576;2023-05-27T14:24:41;12.10;;;5.57;;
13349;SDS011;6744;53.190;6.576;2023-05-27T14:27:06;9.63;;;4.53;;
13349;SDS011;6744;53.190;6.576;2023-05-27T14:29:32;10.13;;;4.47;;
13349;SDS011;6744;53.190;6.576;2023-05-27T14:31:58;8.40;;;4.17;;
13349;SDS011;6744;53.190;6.576;2023-05-27T14:34:23;11.77;;;4.97;;
13349;SDS011;6744;53.190;6.576;2023-05-27T14:36:48;9.03;;;4.60;;
13349;SDS011;6744;53.190;6.576;2023-05-27T14:39:14;13.60;;;5.47;;
13349;SDS011;6744;53.190;6.576;2023-05-27T14:41:40;8.83;;;4.33;;
13349;SDS011;6744;53.190;6.576;2023-05-27T14:44:06;13.43;;;5.20;;
13349;SDS011;6744;53.190;6.576;2023-05-27T14:46:31;10.47;;;4.20;;
13349;SDS011;6744;53.190;6.576;2023-05-27T14:48:57;10.47;;;4.70;;
13349;SDS011;6744;53.190;6.576;2023-05-27T14:51:22;9.63;;;4.63;;
13349;SDS011;6744;53.190;6.576;2023-05-27T14:53:47;11.30;;;4.53;;
13349;SDS011;6744;53.190;6.576;2023-05-27T14:56:13;11.23;;;5.10;;